sensor_id;sensor_type;location;lat;lon;timestamp;temperature;humidity
14101;DHT22;7127;49.372;8.166;2023-05-10T00:00:32;18.90;59.00
14101;DHT22;7127;49.372;8.166;2023-05-10T00:02:59;18.90;59.10
14101;DHT22;7127;49.372;8.166;2023-05-10T00:05:27;18.90;59.20
14101;DHT22;7127;49.372;8.166;2023-05-10T00:07:54;18.90;59.20
14101;DHT22;7127;49.372;8.166;2023-05-10T00:10:21;18.90;59.20
14101;DHT22;7127;49.372;8.166;2023-05-10T00:12:48;18.90;59.20
14101;DHT22;7127;49.372;8.166;2023-05-10T00:15:15;18.90;59.30
14101;DHT22;7127;49.372;8.166;2023-05-10T00:17:42;19.00;59.40
14101;DHT22;7127;49.372;8.166;2023-05-10T00:20:10;18.90;59.30
14101;DHT22;7127;49.372;8.166;2023-05-10T00:22:38;18.90;59.20
14101;DHT22;7127;49.372;8.166;2023-05-10T00:25:07;18.80;58.90
14101;DHT22;7127;49.372;8.166;2023-05-10T00:27:34;18.80;59.00
14101;DHT22;7127;49.372;8.166;2023-05-10T00:30:01;18.80;58.90
14101;DHT22;7127;49.372;8.166;2023-05-10T00:32:28;18.80;58.90
14101;DHT22;7127;49.372;8.166;2023-05-10T00:34:55;18.70;58.80
14101;DHT22;7127;49.372;8.166;2023-05-10T00:37:22;18.80;59.00
14101;DHT22;7127;49.372;8.166;2023-05-10T00:39:50;18.80;59.00
14101;DHT22;7127;49.372;8.166;2023-05-10T00:42:17;18.70;58.90
14101;DHT22;7127;49.372;8.166;2023-05-10T00:44:43;18.70;59.00
14101;DHT22;7127;49.372;8.166;2023-05-10T00:47:12;18.70;59.20
14101;DHT22;7127;49.372;8.166;2023-05-10T00:49:39;18.70;59.10
14101;DHT22;7127;49.372;8.166;2023-05-10T00:52:06;18.80;59.20
14101;DHT22;7127;49.372;8.166;2023-05-10T00:54:33;18.70;59.20
14101;DHT22;7127;49.372;8.166;2023-05-10T00:57:01;18.70;59.20
14101;DHT22;7127;49.372;8.166;2023-05-10T00:59:28;18.70;59.30
14101;DHT22;7127;49.372;8.166;2023-05-10T01:01:56;18.70;59.30
14101;DHT22;7127;49.372;8.166;2023-05-10T01:04:24;18.80;59.30
14101;DHT22;7127;49.372;8.166;2023-05-10T01:06:51;18.70;59.20
14101;DHT22;7127;49.372;8.166;2023-05-10T01:09:20;18.70;59.20
14101;DHT22;7127;49.372;8.166;2023-05-10T01:11:47;18.60;59.10
14101;DHT22;7127;49.372;8.166;2023-05-10T01:14:18;18.70;59.40
14101;DHT22;7127;49.372;8.166;2023-05-10T01:16:47;18.60;59.30
14101;DHT22;7127;49.372;8.166;2023-05-10T01:19:18;18.60;59.30
14101;DHT22;7127;49.372;8.166;2023-05-10T01:21:51;18.70;59.30
14101;DHT22;7127;49.372;8.166;2023-05-10T01:24:40;18.60;59.30
14101;DHT22;7127;49.372;8.166;2023-05-10T01:27:20;18.60;60.00
14101;DHT22;7127;49.372;8.166;2023-05-10T01:32:53;18.60;59.10
14101;DHT22;7127;49.372;8.166;2023-05-10T01:35:32;18.70;59.30
14101;DHT22;7127;49.372;8.166;2023-05-10T01:38:07;18.60;59.30
14101;DHT22;7127;49.372;8.166;2023-05-10T01:40:42;18.60;59.30
14101;DHT22;7127;49.372;8.166;2023-05-10T01:43:19;18.60;59.30
14101;DHT22;7127;49.372;8.166;2023-05-10T01:45:54;18.40;59.10
14101;DHT22;7127;49.372;8.166;2023-05-10T01:48:26;18.50;59.20
14101;DHT22;7127;49.372;8.166;2023-05-10T01:50:55;18.50;59.20
14101;DHT22;7127;49.372;8.166;2023-05-10T01:53:23;18.50;59.30
14101;DHT22;7127;49.372;8.166;2023-05-10T01:55:52;18.50;59.30
14101;DHT22;7127;49.372;8.166;2023-05-10T01:58:23;18.50;59.30
14101;DHT22;7127;49.372;8.166;2023-05-10T02:00:52;18.50;59.30
14101;DHT22;7127;49.372;8.166;2023-05-10T02:03:23;18.50;59.20
14101;DHT22;7127;49.372;8.166;2023-05-10T02:05:52;18.60;59.30
14101;DHT22;7127;49.372;8.166;2023-05-10T02:08:21;18.50;59.10
14101;DHT22;7127;49.372;8.166;2023-05-10T02:10:51;18.40;59.00
14101;DHT22;7127;49.372;8.166;2023-05-10T02:13:19;18.50;59.20
14101;DHT22;7127;49.372;8.166;2023-05-10T02:15:48;18.40;59.10
14101;DHT22;7127;49.372;8.166;2023-05-10T02:18:16;18.40;59.20
14101;DHT22;7127;49.372;8.166;2023-05-10T02:20:45;18.40;59.20
14101;DHT22;7127;49.372;8.166;2023-05-10T02:23:14;18.40;59.20
14101;DHT22;7127;49.372;8.166;2023-05-10T02:25:44;18.40;59.30
14101;DHT22;7127;49.372;8.166;2023-05-10T02:28:12;18.50;59.30
14101;DHT22;7127;49.372;8.166;2023-05-10T02:30:39;18.40;59.20
14101;DHT22;7127;49.372;8.166;2023-05-10T02:33:07;18.40;59.20
14101;DHT22;7127;49.372;8.166;2023-05-10T02:35:35;18.40;59.20
14101;DHT22;7127;49.372;8.166;2023-05-10T02:38:02;18.30;59.00
14101;DHT22;7127;49.372;8.166;2023-05-10T02:40:32;18.40;59.20
14101;DHT22;7127;49.372;8.166;2023-05-10T02:43:01;18.30;59.00
14101;DHT22;7127;49.372;8.166;2023-05-10T02:45:30;18.40;59.10
14101;DHT22;7127;49.372;8.166;2023-05-10T02:47:58;18.20;59.00
14101;DHT22;7127;49.372;8.166;2023-05-10T02:50:27;18.30;59.00
14101;DHT22;7127;49.372;8.166;2023-05-10T02:53:00;18.30;59.10
14101;DHT22;7127;49.372;8.166;2023-05-10T02:55:35;18.30;59.10
14101;DHT22;7127;49.372;8.166;2023-05-10T02:58:03;18.30;59.10
14101;DHT22;7127;49.372;8.166;2023-05-10T03:00:31;18.20;59.00
14101;DHT22;7127;49.372;8.166;2023-05-10T03:02:58;18.30;59.00
14101;DHT22;7127;49.372;8.166;2023-05-10T03:05:25;18.30;59.00
14101;DHT22;7127;49.372;8.166;2023-05-10T03:07:52;18.30;59.00
14101;DHT22;7127;49.372;8.166;2023-05-10T03:10:20;18.30;59.00
14101;DHT22;7127;49.372;8.166;2023-05-10T03:13:07;18.20;58.90
14101;DHT22;7127;49.372;8.166;2023-05-10T03:15:45;18.20;59.50
14101;DHT22;7127;49.372;8.166;2023-05-10T03:18:17;18.20;58.90
14101;DHT22;7127;49.372;8.166;2023-05-10T03:20:47;18.20;58.90
14101;DHT22;7127;49.372;8.166;2023-05-10T03:23:21;18.10;58.90
14101;DHT22;7127;49.372;8.166;2023-05-10T03:25:50;18.20;59.10
14101;DHT22;7127;49.372;8.166;2023-05-10T03:28:20;18.10;58.90
14101;DHT22;7127;49.372;8.166;2023-05-10T03:30:47;18.00;58.90
14101;DHT22;7127;49.372;8.166;2023-05-10T03:33:15;18.10;58.90
14101;DHT22;7127;49.372;8.166;2023-05-10T03:35:42;18.20;59.00
14101;DHT22;7127;49.372;8.166;2023-05-10T03:38:11;17.90;58.90
14101;DHT22;7127;49.372;8.166;2023-05-10T03:40:38;18.00;59.00
14101;DHT22;7127;49.372;8.166;2023-05-10T03:43:05;18.00;59.00
14101;DHT22;7127;49.372;8.166;2023-05-10T03:45:33;18.10;59.00
14101;DHT22;7127;49.372;8.166;2023-05-10T03:48:00;17.90;59.10
14101;DHT22;7127;49.372;8.166;2023-05-10T03:50:27;17.90;59.10
14101;DHT22;7127;49.372;8.166;2023-05-10T03:52:54;17.90;59.20
14101;DHT22;7127;49.372;8.166;2023-05-10T03:55:21;17.90;59.10
14101;DHT22;7127;49.372;8.166;2023-05-10T03:57:47;17.90;59.30
14101;DHT22;7127;49.372;8.166;2023-05-10T04:00:15;17.90;59.40
14101;DHT22;7127;49.372;8.166;2023-05-10T04:02:43;17.90;59.30
14101;DHT22;7127;49.372;8.166;2023-05-10T04:05:10;17.80;59.30
14101;DHT22;7127;49.372;8.166;2023-05-10T04:07:37;17.80;59.30
14101;DHT22;7127;49.372;8.166;2023-05-10T04:10:05;17.90;59.50
14101;DHT22;7127;49.372;8.166;2023-05-10T04:12:32;17.90;59.40
14101;DHT22;7127;49.372;8.166;2023-05-10T04:14:59;17.90;59.50
14101;DHT22;7127;49.372;8.166;2023-05-10T04:17:26;17.90;59.40
14101;DHT22;7127;49.372;8.166;2023-05-10T04:19:55;17.90;59.60
14101;DHT22;7127;49.372;8.166;2023-05-10T04:22:22;17.90;59.60
14101;DHT22;7127;49.372;8.166;2023-05-10T04:24:49;17.90;59.50
14101;DHT22;7127;49.372;8.166;2023-05-10T04:27:16;17.90;59.50
14101;DHT22;7127;49.372;8.166;2023-05-10T04:29:43;17.90;59.50
14101;DHT22;7127;49.372;8.166;2023-05-10T04:32:09;17.90;59.40
14101;DHT22;7127;49.372;8.166;2023-05-10T04:34:36;17.90;59.50
14101;DHT22;7127;49.372;8.166;2023-05-10T04:37:05;18.00;59.60
14101;DHT22;7127;49.372;8.166;2023-05-10T04:39:32;18.00;59.60
14101;DHT22;7127;49.372;8.166;2023-05-10T04:42:00;18.00;59.50
14101;DHT22;7127;49.372;8.166;2023-05-10T04:44:28;18.00;59.50
14101;DHT22;7127;49.372;8.166;2023-05-10T04:46:55;18.00;59.50
14101;DHT22;7127;49.372;8.166;2023-05-10T04:49:21;18.10;59.50
14101;DHT22;7127;49.372;8.166;2023-05-10T04:51:48;18.00;59.50
14101;DHT22;7127;49.372;8.166;2023-05-10T04:54:17;18.10;59.60
14101;DHT22;7127;49.372;8.166;2023-05-10T04:56:43;18.20;59.70
14101;DHT22;7127;49.372;8.166;2023-05-10T04:59:10;18.10;59.70
14101;DHT22;7127;49.372;8.166;2023-05-10T05:01:37;18.10;59.60
14101;DHT22;7127;49.372;8.166;2023-05-10T05:04:04;18.10;59.80
14101;DHT22;7127;49.372;8.166;2023-05-10T05:06:31;18.10;59.80
14101;DHT22;7127;49.372;8.166;2023-05-10T05:08:58;18.10;59.70
14101;DHT22;7127;49.372;8.166;2023-05-10T05:11:26;18.20;59.70
14101;DHT22;7127;49.372;8.166;2023-05-10T05:13:53;18.10;59.70
14101;DHT22;7127;49.372;8.166;2023-05-10T05:16:20;18.30;59.80
14101;DHT22;7127;49.372;8.166;2023-05-10T05:18:47;18.20;59.80
14101;DHT22;7127;49.372;8.166;2023-05-10T05:21:15;18.20;59.70
14101;DHT22;7127;49.372;8.166;2023-05-10T05:23:42;18.30;59.80
14101;DHT22;7127;49.372;8.166;2023-05-10T05:26:10;18.40;59.80
14101;DHT22;7127;49.372;8.166;2023-05-10T05:28:38;18.30;59.60
14101;DHT22;7127;49.372;8.166;2023-05-10T05:31:05;18.40;59.60
14101;DHT22;7127;49.372;8.166;2023-05-10T05:33:32;18.50;59.70
14101;DHT22;7127;49.372;8.166;2023-05-10T05:36:00;18.40;59.60
14101;DHT22;7127;49.372;8.166;2023-05-10T05:38:27;18.40;59.50
14101;DHT22;7127;49.372;8.166;2023-05-10T05:40:54;18.50;59.60
14101;DHT22;7127;49.372;8.166;2023-05-10T05:43:21;18.50;59.60
14101;DHT22;7127;49.372;8.166;2023-05-10T05:45:49;18.50;60.20
14101;DHT22;7127;49.372;8.166;2023-05-10T05:48:16;18.60;59.60
14101;DHT22;7127;49.372;8.166;2023-05-10T05:50:43;18.60;59.60
14101;DHT22;7127;49.372;8.166;2023-05-10T05:53:11;18.70;59.50
14101;DHT22;7127;49.372;8.166;2023-05-10T05:55:38;18.60;59.40
14101;DHT22;7127;49.372;8.166;2023-05-10T05:58:04;18.50;59.10
14101;DHT22;7127;49.372;8.166;2023-05-10T06:00:31;18.70;59.30
14101;DHT22;7127;49.372;8.166;2023-05-10T06:02:59;18.60;59.10
14101;DHT22;7127;49.372;8.166;2023-05-10T06:05:26;18.70;59.20
14101;DHT22;7127;49.372;8.166;2023-05-10T06:07:53;18.80;59.30
14101;DHT22;7127;49.372;8.166;2023-05-10T06:10:20;18.80;59.30
14101;DHT22;7127;49.372;8.166;2023-05-10T06:12:47;18.80;59.10
14101;DHT22;7127;49.372;8.166;2023-05-10T06:15:14;18.80;59.00
14101;DHT22;7127;49.372;8.166;2023-05-10T06:17:41;18.80;59.10
14101;DHT22;7127;49.372;8.166;2023-05-10T06:20:11;18.80;59.00
14101;DHT22;7127;49.372;8.166;2023-05-10T06:22:38;18.90;59.10
14101;DHT22;7127;49.372;8.166;2023-05-10T06:25:06;18.90;58.90
14101;DHT22;7127;49.372;8.166;2023-05-10T06:27:33;18.90;58.90
14101;DHT22;7127;49.372;8.166;2023-05-10T06:30:00;19.00;59.00
14101;DHT22;7127;49.372;8.166;2023-05-10T06:32:28;18.90;59.00
14101;DHT22;7127;49.372;8.166;2023-05-10T06:34:54;19.00;59.10
14101;DHT22;7127;49.372;8.166;2023-05-10T06:37:23;19.10;59.20
14101;DHT22;7127;49.372;8.166;2023-05-10T06:39:50;19.10;59.10
14101;DHT22;7127;49.372;8.166;2023-05-10T06:42:16;19.20;59.10
14101;DHT22;7127;49.372;8.166;2023-05-10T06:44:43;19.20;58.80
14101;DHT22;7127;49.372;8.166;2023-05-10T06:47:10;19.30;58.80
14101;DHT22;7127;49.372;8.166;2023-05-10T06:49:37;19.30;58.90
14101;DHT22;7127;49.372;8.166;2023-05-10T06:52:04;19.30;58.80
14101;DHT22;7127;49.372;8.166;2023-05-10T06:54:36;19.40;58.60
14101;DHT22;7127;49.372;8.166;2023-05-10T06:57:07;19.40;58.40
14101;DHT22;7127;49.372;8.166;2023-05-10T06:59:34;19.40;58.40
14101;DHT22;7127;49.372;8.166;2023-05-10T07:02:01;19.40;58.50
14101;DHT22;7127;49.372;8.166;2023-05-10T07:04:28;19.50;58.60
14101;DHT22;7127;49.372;8.166;2023-05-10T07:06:55;19.50;58.50
14101;DHT22;7127;49.372;8.166;2023-05-10T07:09:23;19.50;58.30
14101;DHT22;7127;49.372;8.166;2023-05-10T07:11:52;19.60;58.40
14101;DHT22;7127;49.372;8.166;2023-05-10T07:14:19;19.50;58.30
14101;DHT22;7127;49.372;8.166;2023-05-10T07:16:46;19.60;58.40
14101;DHT22;7127;49.372;8.166;2023-05-10T07:19:12;19.70;58.40
14101;DHT22;7127;49.372;8.166;2023-05-10T07:24:38;19.80;58.10
14101;DHT22;7127;49.372;8.166;2023-05-10T07:27:06;19.90;58.20
14101;DHT22;7127;49.372;8.166;2023-05-10T07:29:34;19.90;58.10
14101;DHT22;7127;49.372;8.166;2023-05-10T07:32:01;20.00;58.30
14101;DHT22;7127;49.372;8.166;2023-05-10T07:34:38;20.10;58.10
14101;DHT22;7127;49.372;8.166;2023-05-10T07:39:53;20.20;58.10
14101;DHT22;7127;49.372;8.166;2023-05-10T07:42:23;20.20;58.00
14101;DHT22;7127;49.372;8.166;2023-05-10T07:44:50;20.30;58.00
14101;DHT22;7127;49.372;8.166;2023-05-10T07:47:16;20.40;57.90
14101;DHT22;7127;49.372;8.166;2023-05-10T07:49:44;20.40;57.80
14101;DHT22;7127;49.372;8.166;2023-05-10T07:52:11;20.40;57.60
14101;DHT22;7127;49.372;8.166;2023-05-10T07:54:37;20.50;57.50
14101;DHT22;7127;49.372;8.166;2023-05-10T07:57:04;20.60;57.50
14101;DHT22;7127;49.372;8.166;2023-05-10T07:59:33;20.50;57.30
14101;DHT22;7127;49.372;8.166;2023-05-10T08:02:00;20.70;57.30
14101;DHT22;7127;49.372;8.166;2023-05-10T08:04:27;20.80;57.50
14101;DHT22;7127;49.372;8.166;2023-05-10T08:06:54;20.80;57.20
14101;DHT22;7127;49.372;8.166;2023-05-10T08:09:21;20.90;57.00
14101;DHT22;7127;49.372;8.166;2023-05-10T08:11:49;21.00;56.80
14101;DHT22;7127;49.372;8.166;2023-05-10T08:14:16;21.00;56.60
14101;DHT22;7127;49.372;8.166;2023-05-10T08:16:45;21.00;56.70
14101;DHT22;7127;49.372;8.166;2023-05-10T08:19:12;21.20;56.80
14101;DHT22;7127;49.372;8.166;2023-05-10T08:21:39;21.20;56.90
14101;DHT22;7127;49.372;8.166;2023-05-10T08:24:07;21.30;56.90
14101;DHT22;7127;49.372;8.166;2023-05-10T08:26:34;21.30;56.80
14101;DHT22;7127;49.372;8.166;2023-05-10T08:29:01;21.50;57.00
14101;DHT22;7127;49.372;8.166;2023-05-10T08:31:28;21.50;56.50
14101;DHT22;7127;49.372;8.166;2023-05-10T08:33:56;21.50;56.10
14101;DHT22;7127;49.372;8.166;2023-05-10T08:36:23;21.60;55.80
14101;DHT22;7127;49.372;8.166;2023-05-10T08:38:51;21.60;55.40
14101;DHT22;7127;49.372;8.166;2023-05-10T08:41:19;21.50;55.10
14101;DHT22;7127;49.372;8.166;2023-05-10T08:43:47;21.60;55.00
14101;DHT22;7127;49.372;8.166;2023-05-10T08:46:16;21.50;54.50
14101;DHT22;7127;49.372;8.166;2023-05-10T08:48:44;21.50;54.60
14101;DHT22;7127;49.372;8.166;2023-05-10T08:51:14;21.40;54.30
14101;DHT22;7127;49.372;8.166;2023-05-10T08:53:42;21.40;54.30
14101;DHT22;7127;49.372;8.166;2023-05-10T08:56:08;21.30;54.60
14101;DHT22;7127;49.372;8.166;2023-05-10T08:58:36;21.30;54.50
14101;DHT22;7127;49.372;8.166;2023-05-10T09:01:03;21.30;54.70
14101;DHT22;7127;49.372;8.166;2023-05-10T09:03:30;21.30;54.80
14101;DHT22;7127;49.372;8.166;2023-05-10T09:05:57;21.40;54.80
14101;DHT22;7127;49.372;8.166;2023-05-10T09:08:26;21.30;54.80
14101;DHT22;7127;49.372;8.166;2023-05-10T09:10:54;21.40;54.80
14101;DHT22;7127;49.372;8.166;2023-05-10T09:13:22;21.30;54.50
14101;DHT22;7127;49.372;8.166;2023-05-10T09:15:49;21.30;54.30
14101;DHT22;7127;49.372;8.166;2023-05-10T09:18:17;21.40;54.20
14101;DHT22;7127;49.372;8.166;2023-05-10T09:20:44;21.30;53.60
14101;DHT22;7127;49.372;8.166;2023-05-10T09:23:11;21.30;53.10
14101;DHT22;7127;49.372;8.166;2023-05-10T09:25:41;21.20;53.30
14101;DHT22;7127;49.372;8.166;2023-05-10T09:28:08;21.10;52.90
14101;DHT22;7127;49.372;8.166;2023-05-10T09:30:36;21.00;52.80
14101;DHT22;7127;49.372;8.166;2023-05-10T09:33:03;21.00;52.60
14101;DHT22;7127;49.372;8.166;2023-05-10T09:35:31;21.00;52.70
14101;DHT22;7127;49.372;8.166;2023-05-10T09:38:02;21.00;52.80
14101;DHT22;7127;49.372;8.166;2023-05-10T09:40:30;20.80;53.00
14101;DHT22;7127;49.372;8.166;2023-05-10T09:43:00;20.90;53.10
14101;DHT22;7127;49.372;8.166;2023-05-10T09:45:28;20.90;53.10
14101;DHT22;7127;49.372;8.166;2023-05-10T09:47:56;20.90;53.10
14101;DHT22;7127;49.372;8.166;2023-05-10T09:50:24;20.90;53.10
14101;DHT22;7127;49.372;8.166;2023-05-10T09:52:53;20.90;53.30
14101;DHT22;7127;49.372;8.166;2023-05-10T09:55:21;20.90;53.10
14101;DHT22;7127;49.372;8.166;2023-05-10T09:57:49;20.90;53.40
14101;DHT22;7127;49.372;8.166;2023-05-10T10:00:26;21.00;53.40
14101;DHT22;7127;49.372;8.166;2023-05-10T10:02:56;21.10;53.70
14101;DHT22;7127;49.372;8.166;2023-05-10T10:05:28;21.20;53.90
14101;DHT22;7127;49.372;8.166;2023-05-10T10:07:56;21.40;53.40
14101;DHT22;7127;49.372;8.166;2023-05-10T10:10:24;21.40;53.20
14101;DHT22;7127;49.372;8.166;2023-05-10T10:12:51;21.50;52.90
14101;DHT22;7127;49.372;8.166;2023-05-10T10:15:18;21.60;52.40
14101;DHT22;7127;49.372;8.166;2023-05-10T10:17:46;21.60;52.00
14101;DHT22;7127;49.372;8.166;2023-05-10T10:20:15;21.70;51.90
14101;DHT22;7127;49.372;8.166;2023-05-10T10:22:42;21.70;52.20
14101;DHT22;7127;49.372;8.166;2023-05-10T10:25:11;21.80;51.90
14101;DHT22;7127;49.372;8.166;2023-05-10T10:27:45;21.90;52.00
14101;DHT22;7127;49.372;8.166;2023-05-10T10:30:21;21.90;51.40
14101;DHT22;7127;49.372;8.166;2023-05-10T10:33:06;22.00;51.50
14101;DHT22;7127;49.372;8.166;2023-05-10T10:35:36;22.10;50.90
14101;DHT22;7127;49.372;8.166;2023-05-10T10:38:03;22.10;50.40
14101;DHT22;7127;49.372;8.166;2023-05-10T10:40:32;22.10;50.30
14101;DHT22;7127;49.372;8.166;2023-05-10T10:43:21;22.20;50.40
14101;DHT22;7127;49.372;8.166;2023-05-10T10:46:09;22.20;49.30
14101;DHT22;7127;49.372;8.166;2023-05-10T10:48:38;22.10;49.10
14101;DHT22;7127;49.372;8.166;2023-05-10T10:51:06;22.40;49.70
14101;DHT22;7127;49.372;8.166;2023-05-10T10:53:33;22.30;49.60
14101;DHT22;7127;49.372;8.166;2023-05-10T10:56:06;22.40;50.20
14101;DHT22;7127;49.372;8.166;2023-05-10T10:58:35;22.40;50.20
14101;DHT22;7127;49.372;8.166;2023-05-10T11:01:13;22.50;50.30
14101;DHT22;7127;49.372;8.166;2023-05-10T11:06:47;22.60;49.50
14101;DHT22;7127;49.372;8.166;2023-05-10T11:09:14;22.70;50.40
14101;DHT22;7127;49.372;8.166;2023-05-10T11:11:52;22.70;50.00
14101;DHT22;7127;49.372;8.166;2023-05-10T11:14:21;22.80;49.20
14101;DHT22;7127;49.372;8.166;2023-05-10T11:16:48;22.70;49.80
14101;DHT22;7127;49.372;8.166;2023-05-10T11:19:18;22.80;49.90
14101;DHT22;7127;49.372;8.166;2023-05-10T11:21:47;22.70;49.40
14101;DHT22;7127;49.372;8.166;2023-05-10T11:24:15;22.70;49.30
14101;DHT22;7127;49.372;8.166;2023-05-10T11:26:42;22.70;48.90
14101;DHT22;7127;49.372;8.166;2023-05-10T11:29:09;22.70;48.60
14101;DHT22;7127;49.372;8.166;2023-05-10T11:31:42;22.70;48.10
14101;DHT22;7127;49.372;8.166;2023-05-10T11:34:10;22.70;48.10
14101;DHT22;7127;49.372;8.166;2023-05-10T11:36:40;22.60;47.60
14101;DHT22;7127;49.372;8.166;2023-05-10T11:39:07;22.60;48.00
14101;DHT22;7127;49.372;8.166;2023-05-10T11:41:35;22.60;48.20
14101;DHT22;7127;49.372;8.166;2023-05-10T11:44:02;22.50;48.10
14101;DHT22;7127;49.372;8.166;2023-05-10T11:46:29;22.50;48.50
14101;DHT22;7127;49.372;8.166;2023-05-10T11:48:57;22.50;48.60
14101;DHT22;7127;49.372;8.166;2023-05-10T11:51:26;22.40;48.30
14101;DHT22;7127;49.372;8.166;2023-05-10T11:53:56;22.40;48.60
14101;DHT22;7127;49.372;8.166;2023-05-10T11:56:23;22.30;48.50
14101;DHT22;7127;49.372;8.166;2023-05-10T11:58:55;22.40;48.80
14101;DHT22;7127;49.372;8.166;2023-05-10T12:01:23;22.40;48.80
14101;DHT22;7127;49.372;8.166;2023-05-10T12:03:51;22.40;49.10
14101;DHT22;7127;49.372;8.166;2023-05-10T12:06:20;22.50;48.90
14101;DHT22;7127;49.372;8.166;2023-05-10T12:08:47;22.50;49.40
14101;DHT22;7127;49.372;8.166;2023-05-10T12:11:19;22.60;48.80
14101;DHT22;7127;49.372;8.166;2023-05-10T12:13:47;22.60;48.70
14101;DHT22;7127;49.372;8.166;2023-05-10T12:16:16;22.60;48.60
14101;DHT22;7127;49.372;8.166;2023-05-10T12:18:44;22.70;48.40
14101;DHT22;7127;49.372;8.166;2023-05-10T12:21:12;22.70;48.20
14101;DHT22;7127;49.372;8.166;2023-05-10T12:23:39;22.70;48.10
14101;DHT22;7127;49.372;8.166;2023-05-10T12:26:06;22.80;48.30
14101;DHT22;7127;49.372;8.166;2023-05-10T12:28:34;22.80;48.40
14101;DHT22;7127;49.372;8.166;2023-05-10T12:31:02;22.90;48.20
14101;DHT22;7127;49.372;8.166;2023-05-10T12:33:36;22.90;48.00
14101;DHT22;7127;49.372;8.166;2023-05-10T12:36:05;23.00;47.30
14101;DHT22;7127;49.372;8.166;2023-05-10T12:38:33;23.10;47.30
14101;DHT22;7127;49.372;8.166;2023-05-10T12:41:02;23.10;46.70
14101;DHT22;7127;49.372;8.166;2023-05-10T12:43:29;23.20;47.00
14101;DHT22;7127;49.372;8.166;2023-05-10T12:45:57;23.00;46.60
14101;DHT22;7127;49.372;8.166;2023-05-10T12:48:25;23.20;46.60
14101;DHT22;7127;49.372;8.166;2023-05-10T12:50:54;23.30;47.00
14101;DHT22;7127;49.372;8.166;2023-05-10T12:53:21;23.30;46.30
14101;DHT22;7127;49.372;8.166;2023-05-10T12:55:48;23.40;46.80
14101;DHT22;7127;49.372;8.166;2023-05-10T12:58:15;23.40;46.90
14101;DHT22;7127;49.372;8.166;2023-05-10T13:00:42;23.40;46.90
14101;DHT22;7127;49.372;8.166;2023-05-10T13:03:11;23.50;46.80
14101;DHT22;7127;49.372;8.166;2023-05-10T13:05:38;23.60;46.20
14101;DHT22;7127;49.372;8.166;2023-05-10T13:08:05;23.60;46.10
14101;DHT22;7127;49.372;8.166;2023-05-10T13:10:32;23.60;46.30
14101;DHT22;7127;49.372;8.166;2023-05-10T13:12:59;23.60;45.90
14101;DHT22;7127;49.372;8.166;2023-05-10T13:15:26;23.70;46.10
14101;DHT22;7127;49.372;8.166;2023-05-10T13:17:53;23.70;46.30
14101;DHT22;7127;49.372;8.166;2023-05-10T13:20:22;23.70;46.40
14101;DHT22;7127;49.372;8.166;2023-05-10T13:22:49;23.80;45.60
14101;DHT22;7127;49.372;8.166;2023-05-10T13:25:16;23.70;44.80
14101;DHT22;7127;49.372;8.166;2023-05-10T13:27:44;23.80;44.80
14101;DHT22;7127;49.372;8.166;2023-05-10T13:30:11;23.70;44.20
14101;DHT22;7127;49.372;8.166;2023-05-10T13:32:38;23.70;44.20
14101;DHT22;7127;49.372;8.166;2023-05-10T13:35:06;23.60;43.70
14101;DHT22;7127;49.372;8.166;2023-05-10T13:37:34;23.60;43.00
14101;DHT22;7127;49.372;8.166;2023-05-10T13:40:03;23.50;43.20
14101;DHT22;7127;49.372;8.166;2023-05-10T13:42:30;23.50;43.40
14101;DHT22;7127;49.372;8.166;2023-05-10T13:44:58;23.50;43.90
14101;DHT22;7127;49.372;8.166;2023-05-10T13:47:26;23.50;44.10
14101;DHT22;7127;49.372;8.166;2023-05-10T13:49:53;23.50;44.30
14101;DHT22;7127;49.372;8.166;2023-05-10T13:52:20;23.50;44.40
14101;DHT22;7127;49.372;8.166;2023-05-10T13:54:48;23.60;44.50
14101;DHT22;7127;49.372;8.166;2023-05-10T13:57:18;23.60;44.20
14101;DHT22;7127;49.372;8.166;2023-05-10T13:59:45;23.70;44.20
14101;DHT22;7127;49.372;8.166;2023-05-10T14:02:12;23.70;44.20
14101;DHT22;7127;49.372;8.166;2023-05-10T14:04:39;23.80;43.80
14101;DHT22;7127;49.372;8.166;2023-05-10T14:07:06;23.80;44.20
14101;DHT22;7127;49.372;8.166;2023-05-10T14:09:33;23.80;42.80
14101;DHT22;7127;49.372;8.166;2023-05-10T14:12:01;23.80;43.30
14101;DHT22;7127;49.372;8.166;2023-05-10T14:14:29;23.90;43.70
14101;DHT22;7127;49.372;8.166;2023-05-10T14:16:56;23.90;43.40
14101;DHT22;7127;49.372;8.166;2023-05-10T14:19:23;23.90;42.80
14101;DHT22;7127;49.372;8.166;2023-05-10T14:21:50;24.00;42.70
14101;DHT22;7127;49.372;8.166;2023-05-10T14:24:17;24.00;42.40
14101;DHT22;7127;49.372;8.166;2023-05-10T14:26:44;24.10;43.00
14101;DHT22;7127;49.372;8.166;2023-05-10T14:29:12;24.10;42.80
14101;DHT22;7127;49.372;8.166;2023-05-10T14:31:40;24.10;42.50
14101;DHT22;7127;49.372;8.166;2023-05-10T14:34:07;24.10;42.60
14101;DHT22;7127;49.372;8.166;2023-05-10T14:36:34;24.10;42.00
14101;DHT22;7127;49.372;8.166;2023-05-10T14:39:01;24.20;41.60
14101;DHT22;7127;49.372;8.166;2023-05-10T14:41:28;24.20;41.00
14101;DHT22;7127;49.372;8.166;2023-05-10T14:43:55;24.20;41.70
14101;DHT22;7127;49.372;8.166;2023-05-10T14:46:24;24.10;41.80
14101;DHT22;7127;49.372;8.166;2023-05-10T14:48:51;24.20;41.60
14101;DHT22;7127;49.372;8.166;2023-05-10T14:51:17;24.30;42.10
14101;DHT22;7127;49.372;8.166;2023-05-10T14:53:47;24.30;42.00
14101;DHT22;7127;49.372;8.166;2023-05-10T14:56:14;24.30;42.10
14101;DHT22;7127;49.372;8.166;2023-05-10T14:58:41;24.30;41.20
14101;DHT22;7127;49.372;8.166;2023-05-10T15:01:08;24.40;40.70
14101;DHT22;7127;49.372;8.166;2023-05-10T15:03:36;24.40;41.20
14101;DHT22;7127;49.372;8.166;2023-05-10T15:06:04;24.30;40.30
14101;DHT22;7127;49.372;8.166;2023-05-10T15:08:31;24.30;40.40
14101;DHT22;7127;49.372;8.166;2023-05-10T15:10:58;24.30;40.50
14101;DHT22;7127;49.372;8.166;2023-05-10T15:13:25;24.20;39.90
14101;DHT22;7127;49.372;8.166;2023-05-10T15:15:52;24.20;39.90
14101;DHT22;7127;49.372;8.166;2023-05-10T15:18:19;24.10;39.90
14101;DHT22;7127;49.372;8.166;2023-05-10T15:20:47;24.10;40.20
14101;DHT22;7127;49.372;8.166;2023-05-10T15:23:14;24.00;39.80
14101;DHT22;7127;49.372;8.166;2023-05-10T15:25:41;24.00;39.70
14101;DHT22;7127;49.372;8.166;2023-05-10T15:28:08;23.90;40.20
14101;DHT22;7127;49.372;8.166;2023-05-10T15:30:35;24.10;40.10
14101;DHT22;7127;49.372;8.166;2023-05-10T15:33:02;24.00;40.50
14101;DHT22;7127;49.372;8.166;2023-05-10T15:35:29;24.00;40.80
14101;DHT22;7127;49.372;8.166;2023-05-10T15:37:58;24.00;41.70
14101;DHT22;7127;49.372;8.166;2023-05-10T15:40:25;24.00;41.00
14101;DHT22;7127;49.372;8.166;2023-05-10T15:42:52;24.00;40.80
14101;DHT22;7127;49.372;8.166;2023-05-10T15:45:19;24.10;41.20
14101;DHT22;7127;49.372;8.166;2023-05-10T15:47:47;24.10;41.20
14101;DHT22;7127;49.372;8.166;2023-05-10T15:50:14;24.10;41.30
14101;DHT22;7127;49.372;8.166;2023-05-10T15:52:42;24.20;41.50
14101;DHT22;7127;49.372;8.166;2023-05-10T15:55:10;24.20;41.30
14101;DHT22;7127;49.372;8.166;2023-05-10T15:57:38;24.20;41.40
14101;DHT22;7127;49.372;8.166;2023-05-10T16:00:07;24.20;41.50
14101;DHT22;7127;49.372;8.166;2023-05-10T16:02:34;24.30;41.50